Time;durP1;ratioP1;P1;durP2;ratioP2;P2;SDS_P1;SDS_P2;PMS_P1;PMS_P2;Temp;Humidity;BMP_temperature;BMP_pressure;BME280_temperature;BME280_humidity;BME280_pressure;Samples;Min_cycle;Max_cycle;Signal;HPM_P1;HPM_P2
2022/07/19 00:01:39;;;;;;;14.87;5.97;;;29.30;43.90;;;;;;5030627;28;20271;-94
2022/07/19 00:04:06;;;;;;;16.17;6.37;;;29.30;44.10;;;;;;5028849;28;20221;-94
2022/07/19 00:06:34;;;;;;;10.73;4.43;;;29.20;44.00;;;;;;5028019;28;20318;-93
2022/07/19 00:09:02;;;;;;;9.33;4.30;;;29.20;44.00;;;;;;5020104;28;20706;-91
2022/07/19 00:11:36;;;;;;;12.93;5.23;;;29.10;44.00;;;;;;5011632;28;20209;-92
2022/07/19 00:14:05;;;;;;;11.07;4.93;;;29.10;44.70;;;;;;5029309;28;20237;-91
2022/07/19 00:16:32;;;;;;;15.73;5.93;;;29.00;44.50;;;;;;5028829;28;20556;-91
2022/07/19 00:18:59;;;;;;;9.33;4.30;;;29.00;44.30;;;;;;5028863;28;20212;-92
2022/07/19 00:21:28;;;;;;;13.63;5.33;;;29.00;43.90;;;;;;5027260;28;20211;-94
2022/07/19 00:23:55;;;;;;;12.83;5.30;;;28.90;44.10;;;;;;5029985;28;20205;-92
2022/07/19 00:26:23;;;;;;;12.40;5.03;;;28.90;44.30;;;;;;5028055;28;20302;-94
2022/07/19 00:28:50;;;;;;;10.33;4.23;;;28.90;44.50;;;;;;5026791;28;20213;-93
2022/07/19 00:31:19;;;;;;;12.67;5.20;;;28.80;44.60;;;;;;5029601;28;20223;-93
2022/07/19 00:33:46;;;;;;;13.77;5.07;;;28.80;44.90;;;;;;5033755;28;20227;-92
2022/07/19 00:36:13;;;;;;;15.57;6.23;;;28.70;44.90;;;;;;5026412;28;20197;-92
2022/07/19 00:38:41;;;;;;;8.80;4.23;;;28.70;45.10;;;;;;5026922;28;20607;-92
2022/07/19 00:41:08;;;;;;;7.83;3.60;;;28.70;45.20;;;;;;5025091;28;20740;-91
2022/07/19 00:43:35;;;;;;;11.20;4.53;;;28.60;45.30;;;;;;5027106;28;20228;-92
2022/07/19 00:46:02;;;;;;;13.17;4.97;;;28.60;45.50;;;;;;5025486;28;20255;-91
2022/07/19 00:48:30;;;;;;;11.97;4.93;;;28.60;45.60;;;;;;5024885;28;20243;-92
2022/07/19 00:50:57;;;;;;;9.63;4.17;;;28.50;45.70;;;;;;5018655;28;20312;-92
2022/07/19 00:53:26;;;;;;;11.00;3.97;;;28.50;45.60;;;;;;5014515;28;20213;-92
2022/07/19 00:55:56;;;;;;;9.73;4.00;;;28.40;45.60;;;;;;5026784;28;20213;-92
2022/07/19 00:58:25;;;;;;;11.53;4.93;;;28.40;45.70;;;;;;5020186;28;20224;-92
2022/07/19 01:00:52;;;;;;;9.80;4.23;;;28.30;45.40;;;;;;5018599;28;20221;-92
2022/07/19 01:03:19;;;;;;;9.63;4.13;;;28.30;45.60;;;;;;5024897;28;20208;-92
2022/07/19 01:05:48;;;;;;;12.10;5.03;;;28.20;45.80;;;;;;5026418;28;20205;-92
2022/07/19 01:08:15;;;;;;;11.27;4.37;;;28.20;46.10;;;;;;5022043;28;20788;-92
2022/07/19 01:10:42;;;;;;;15.87;5.37;;;28.20;46.00;;;;;;5025424;28;20263;-92
2022/07/19 01:13:10;;;;;;;15.77;6.13;;;28.10;46.10;;;;;;5024760;28;20303;-91
2022/07/19 01:15:41;;;;;;;12.67;4.77;;;28.10;46.30;;;;;;5021271;28;20296;-92
2022/07/19 01:18:08;;;;;;;12.90;5.20;;;28.10;46.70;;;;;;5021594;28;20211;-91
2022/07/19 01:20:36;;;;;;;18.00;6.37;;;28.00;46.40;;;;;;5025061;28;20598;-91
2022/07/19 01:23:05;;;;;;;12.70;5.03;;;28.00;46.70;;;;;;5025757;28;20662;-92
2022/07/19 01:25:35;;;;;;;15.43;5.50;;;27.90;46.60;;;;;;5026180;28;20267;-91
2022/07/19 01:28:03;;;;;;;18.80;6.90;;;27.90;46.70;;;;;;5025175;28;20235;-91
2022/07/19 01:30:33;;;;;;;11.80;5.23;;;27.80;46.70;;;;;;5026168;28;20220;-91
2022/07/19 01:33:01;;;;;;;17.37;6.33;;;27.80;46.90;;;;;;5025992;28;20193;-91
2022/07/19 01:35:28;;;;;;;13.90;5.70;;;27.80;46.90;;;;;;5024242;28;20255;-91
2022/07/19 01:37:57;;;;;;;11.30;5.27;;;27.70;47.00;;;;;;5025128;28;20565;-92
2022/07/19 01:40:27;;;;;;;12.00;5.17;;;27.70;47.10;;;;;;5023948;28;20209;-91
2022/07/19 01:42:54;;;;;;;15.10;5.57;;;27.60;47.10;;;;;;5024019;28;20689;-91
2022/07/19 01:45:22;;;;;;;11.50;4.90;;;27.60;47.10;;;;;;5021049;28;20278;-92
2022/07/19 01:47:49;;;;;;;21.93;7.57;;;27.60;47.30;;;;;;5022807;28;20225;-91
2022/07/19 01:50:18;;;;;;;12.97;5.50;;;27.60;47.40;;;;;;5026139;28;20237;-92
2022/07/19 01:52:46;;;;;;;19.83;7.07;;;27.60;47.70;;;;;;5028069;28;20276;-92
2022/07/19 01:55:15;;;;;;;14.10;5.33;;;27.50;47.60;;;;;;5029052;28;20251;-92
2022/07/19 01:57:44;;;;;;;20.57;7.67;;;27.40;47.60;;;;;;5024615;28;20671;-92
2022/07/19 02:00:14;;;;;;;13.33;4.90;;;27.40;47.60;;;;;;5009848;28;20205;-91
2022/07/19 02:02:41;;;;;;;16.67;6.00;;;27.40;47.90;;;;;;5009564;28;20201;-92
2022/07/19 02:05:09;;;;;;;12.20;5.20;;;27.30;47.70;;;;;;5024463;28;20201;-90
2022/07/19 02:07:36;;;;;;;14.70;6.03;;;27.30;48.00;;;;;;5025452;28;20316;-91
2022/07/19 02:10:04;;;;;;;11.30;4.40;;;27.20;47.90;;;;;;5028688;28;20201;-91
2022/07/19 02:12:31;;;;;;;12.67;5.20;;;27.20;48.10;;;;;;5027933;28;20205;-92
2022/07/19 02:15:01;;;;;;;10.60;3.87;;;27.20;48.10;;;;;;5026538;28;20205;-90
2022/07/19 02:17:28;;;;;;;15.07;6.10;;;27.20;48.40;;;;;;5028769;28;20197;-90
2022/07/19 02:19:55;;;;;;;10.73;4.90;;;27.10;48.20;;;;;;5027616;28;20607;-90
2022/07/19 02:22:22;;;;;;;12.03;5.40;;;27.10;48.30;;;;;;5029587;28;20270;-91
2022/07/19 02:24:49;;;;;;;8.33;4.13;;;27.00;48.50;;;;;;5020041;28;20678;-91
2022/07/19 02:27:17;;;;;;;9.17;4.17;;;27.00;48.50;;;;;;5027789;28;20231;-90
2022/07/19 02:29:44;;;;;;;12.53;5.40;;;26.90;48.60;;;;;;5029447;28;20298;-90
2022/07/19 02:32:12;;;;;;;9.30;4.57;;;26.90;48.70;;;;;;5029478;28;20205;-90
2022/07/19 02:34:40;;;;;;;8.63;4.33;;;26.80;48.80;;;;;;5029483;28;20291;-91
2022/07/19 02:37:07;;;;;;;10.33;5.13;;;26.80;48.80;;;;;;5029088;28;20220;-91
2022/07/19 02:39:35;;;;;;;7.97;4.13;;;26.80;48.90;;;;;;5028346;28;20214;-91
2022/07/19 02:42:04;;;;;;;7.60;4.10;;;26.70;49.00;;;;;;5033038;28;20236;-93
2022/07/19 02:44:31;;;;;;;7.00;3.87;;;26.70;49.30;;;;;;5031255;28;20197;-91
2022/07/19 02:46:59;;;;;;;13.37;5.50;;;26.70;49.10;;;;;;5030776;28;20213;-91
2022/07/19 02:49:27;;;;;;;16.47;6.87;;;26.60;49.20;;;;;;5022450;28;20236;-91
2022/07/19 02:52:10;;;;;;;13.60;5.50;;;26.60;49.40;;;;;;5020126;28;20204;-90
2022/07/19 02:54:37;;;;;;;9.07;4.40;;;26.60;49.80;;;;;;5026683;28;20295;-90
2022/07/19 02:57:04;;;;;;;7.57;3.97;;;26.60;49.40;;;;;;5029891;28;20307;-91
2022/07/19 02:59:34;;;;;;;11.70;5.50;;;26.50;49.40;;;;;;5021477;28;20205;-91
2022/07/19 03:02:01;;;;;;;11.10;4.37;;;26.50;49.60;;;;;;5028674;28;20271;-91
2022/07/19 03:04:29;;;;;;;12.30;5.20;;;26.50;49.60;;;;;;5027563;28;20217;-90
2022/07/19 03:09:23;;;;;;;9.80;4.67;;;26.40;49.70;;;;;;5034428;22;20256;-92
2022/07/19 03:11:50;;;;;;;10.50;4.90;;;26.40;49.90;;;;;;5026444;28;20264;-91
2022/07/19 03:14:17;;;;;;;10.97;4.70;;;26.30;49.80;;;;;;5029134;28;20666;-90
2022/07/19 03:16:47;;;;;;;11.83;5.20;;;26.30;49.90;;;;;;5024175;28;20236;-92
2022/07/19 03:19:14;;;;;;;12.57;5.70;;;26.30;50.20;;;;;;5024302;28;20240;-90
2022/07/19 03:21:42;;;;;;;10.77;4.43;;;26.20;50.00;;;;;;5008631;28;20203;-91
2022/07/19 03:24:09;;;;;;;9.87;4.13;;;26.20;50.10;;;;;;5028271;28;21325;-92
2022/07/19 03:26:37;;;;;;;9.27;4.43;;;26.20;50.00;;;;;;5029476;28;20740;-92
2022/07/19 03:29:19;;;;;;;11.33;5.10;;;26.20;50.00;;;;;;5011065;28;20229;-91
2022/07/19 03:31:47;;;;;;;13.73;5.53;;;26.10;50.50;;;;;;5014748;28;20291;-92
2022/07/19 03:34:40;;;;;;;16.43;6.23;;;26.10;50.10;;;;;;5026714;28;20209;-94
2022/07/19 03:37:08;;;;;;;8.53;4.20;;;26.10;50.70;;;;;;5023964;28;20622;-91
2022/07/19 03:39:35;;;;;;;6.90;3.57;;;26.00;50.20;;;;;;5029588;28;20209;-91
2022/07/19 03:42:11;;;;;;;12.13;5.57;;;26.00;50.20;;;;;;5025520;28;20200;-94
2022/07/19 03:44:39;;;;;;;9.63;4.67;;;25.90;50.40;;;;;;5028986;28;20204;-91
2022/07/19 03:47:11;;;;;;;17.47;6.47;;;25.90;50.40;;;;;;5029066;28;20201;-93
2022/07/19 03:49:45;;;;;;;9.07;4.70;;;25.90;50.70;;;;;;5030354;28;20225;-93
2022/07/19 03:52:15;;;;;;;10.73;5.30;;;25.80;50.70;;;;;;5024056;28;20596;-92
2022/07/19 03:54:43;;;;;;;8.83;4.33;;;25.80;50.70;;;;;;5016354;28;20274;-93
2022/07/19 03:57:10;;;;;;;7.87;4.10;;;25.70;50.70;;;;;;5013906;28;20208;-94
2022/07/19 03:59:55;;;;;;;9.67;4.57;;;25.70;50.70;;;;;;5022081;28;20209;-94
2022/07/19 04:02:23;;;;;;;9.90;4.83;;;25.70;51.20;;;;;;5010275;28;20567;-94
2022/07/19 04:04:50;;;;;;;9.00;4.70;;;25.70;50.90;;;;;;5005116;28;20578;-94
2022/07/19 04:07:22;;;;;;;9.53;4.93;;;25.60;51.00;;;;;;4998482;28;20209;-93
2022/07/19 04:09:49;;;;;;;9.97;4.87;;;25.60;51.10;;;;;;5003601;28;20734;-93
2022/07/19 04:13:03;;;;;;;7.73;4.10;;;25.50;51.00;;;;;;4999107;28;20207;-94
2022/07/19 04:15:30;;;;;;;12.80;5.63;;;25.50;51.60;;;;;;5010663;28;20264;-93
2022/07/19 04:17:59;;;;;;;13.03;5.00;;;25.50;51.00;;;;;;5015024;28;20258;-93
2022/07/19 04:20:45;;;;;;;10.83;4.97;;;25.50;51.40;;;;;;5008823;28;20268;-91
2022/07/19 04:23:35;;;;;;;17.80;6.77;;;25.40;51.80;;;;;;5001181;28;20217;-90
2022/07/19 04:26:05;;;;;;;12.63;5.30;;;25.40;51.90;;;;;;4998516;28;20214;-91
2022/07/19 04:28:32;;;;;;;17.30;7.30;;;25.40;51.40;;;;;;5003003;28;20237;-91
2022/07/19 04:30:59;;;;;;;13.03;5.87;;;25.40;51.40;;;;;;5097113;22;20224;-92
2022/07/19 04:33:29;;;;;;;5.43;3.70;;;25.30;51.40;;;;;;5068619;28;20196;-91
2022/07/19 04:35:58;;;;;;;14.83;5.70;;;25.30;51.60;;;;;;5069960;28;20196;-91
2022/07/19 04:38:25;;;;;;;9.23;4.87;;;25.30;51.40;;;;;;5067535;28;20192;-91
2022/07/19 04:40:53;;;;;;;12.87;5.47;;;25.30;51.50;;;;;;5061939;28;20204;-92
2022/07/19 04:43:20;;;;;;;14.87;6.60;;;25.30;51.60;;;;;;5056030;28;20254;-90
2022/07/19 04:48:40;;;;;;;8.93;4.93;;;25.30;52.00;;;;;;5037203;23;20330;-91
2022/07/19 04:51:07;;;;;;;10.90;5.20;;;25.30;51.50;;;;;;5036865;28;20307;-91
2022/07/19 04:53:35;;;;;;;13.63;6.53;;;25.30;51.50;;;;;;5030902;28;20995;-91
2022/07/19 04:56:03;;;;;;;11.37;5.63;;;25.30;51.50;;;;;;5027015;28;20200;-91
2022/07/19 04:58:31;;;;;;;16.70;7.17;;;25.30;51.40;;;;;;5035192;22;20215;-90
2022/07/19 05:00:57;;;;;;;11.57;5.77;;;25.30;51.40;;;;;;5018507;28;20209;-90
2022/07/19 05:03:25;;;;;;;9.97;5.07;;;25.30;51.60;;;;;;5016444;28;20989;-91
2022/07/19 05:05:52;;;;;;;15.73;6.53;;;25.30;51.30;;;;;;5026517;28;20263;-90
2022/07/19 05:08:19;;;;;;;9.23;4.30;;;25.30;51.30;;;;;;5018684;28;20282;-90
2022/07/19 05:10:47;;;;;;;10.07;5.17;;;25.40;51.10;;;;;;5018205;28;20291;-90
2022/07/19 05:13:18;;;;;;;13.60;6.13;;;25.40;50.90;;;;;;5027164;28;20324;-92
2022/07/19 05:15:45;;;;;;;9.57;5.33;;;25.40;50.90;;;;;;5027655;28;20208;-92
2022/07/19 05:18:30;;;;;;;15.17;6.27;;;25.40;50.30;;;;;;5026963;28;20201;-90
2022/07/19 05:20:57;;;;;;;12.33;6.53;;;25.50;50.10;;;;;;5019116;28;20213;-91
2022/07/19 05:23:24;;;;;;;19.13;8.07;;;25.40;50.10;;;;;;5025796;28;20266;-90
2022/07/19 05:25:54;;;;;;;10.80;5.90;;;25.50;50.20;;;;;;5023403;28;20659;-91
2022/07/19 05:30:51;;;;;;;9.13;5.30;;;25.60;50.30;;;;;;5065726;23;20247;-91
2022/07/19 05:33:19;;;;;;;12.90;6.40;;;25.60;50.60;;;;;;5045709;28;20545;-92
2022/07/19 05:35:47;;;;;;;12.47;6.00;;;25.70;50.00;;;;;;5049956;28;20646;-91
2022/07/19 05:38:15;;;;;;;13.20;6.13;;;25.70;50.50;;;;;;5047003;28;20204;-91
2022/07/19 05:40:43;;;;;;;9.23;5.00;;;25.70;50.40;;;;;;5047746;28;20208;-92
2022/07/19 05:43:10;;;;;;;17.10;7.53;;;25.80;50.30;;;;;;5045390;28;20227;-93
2022/07/19 05:45:44;;;;;;;15.80;6.43;;;25.80;50.30;;;;;;5048600;28;20274;-93
2022/07/19 05:48:12;;;;;;;11.63;5.20;;;25.80;50.60;;;;;;5035735;28;20617;-92
2022/07/19 05:50:40;;;;;;;9.27;5.10;;;25.90;50.00;;;;;;5041324;28;20200;-92
2022/07/19 05:55:55;;;;;;;10.37;5.47;;;26.00;50.60;;;;;;5036310;22;20772;-92
2022/07/19 05:58:24;;;;;;;11.83;5.90;;;26.00;50.00;;;;;;5029927;28;20213;-92
2022/07/19 06:03:57;;;;;;;14.37;7.00;;;26.10;50.30;;;;;;5019226;28;20204;-91
2022/07/19 06:06:26;;;;;;;11.57;5.90;;;26.20;50.70;;;;;;5018941;28;20212;-92
2022/07/19 06:08:53;;;;;;;15.80;7.23;;;26.20;50.30;;;;;;5018556;28;20693;-92
2022/07/19 06:11:20;;;;;;;10.27;5.60;;;26.30;50.40;;;;;;5019663;28;20232;-93
2022/07/19 06:13:48;;;;;;;8.30;4.93;;;26.30;50.40;;;;;;5019539;28;20205;-92
2022/07/19 06:16:16;;;;;;;19.57;7.90;;;26.40;50.40;;;;;;5000075;28;20236;-93
2022/07/19 06:18:58;;;;;;;12.17;6.03;;;26.40;50.40;;;;;;5019164;28;20201;-92
2022/07/19 06:21:27;;;;;;;11.77;6.27;;;26.50;50.30;;;;;;5024917;23;20286;-93
2022/07/19 06:23:57;;;;;;;12.53;6.27;;;26.60;50.30;;;;;;5018140;28;20263;-93
2022/07/19 06:26:26;;;;;;;12.23;6.27;;;26.60;50.40;;;;;;5023177;22;20320;-92
2022/07/19 06:28:54;;;;;;;11.03;5.83;;;26.60;50.40;;;;;;5007745;28;20344;-94
2022/07/19 06:31:21;;;;;;;14.60;7.17;;;26.70;50.60;;;;;;5009904;28;20205;-93
2022/07/19 06:33:50;;;;;;;11.37;5.80;;;26.70;50.50;;;;;;5008102;28;20202;-92
2022/07/19 06:36:37;;;;;;;14.87;7.13;;;26.80;50.70;;;;;;5009457;28;20307;-93
2022/07/19 06:39:04;;;;;;;13.73;6.33;;;26.90;50.70;;;;;;5007822;28;20240;-92
2022/07/19 06:44:07;;;;;;;11.77;5.63;;;27.00;51.40;;;;;;5044400;22;20223;-93
2022/07/19 06:46:34;;;;;;;10.73;6.07;;;27.10;50.90;;;;;;5037357;28;20209;-93
2022/07/19 06:49:02;;;;;;;11.00;5.80;;;27.10;50.90;;;;;;5038455;28;20723;-94
2022/07/19 06:51:29;;;;;;;16.07;7.43;;;27.10;50.90;;;;;;5039900;28;20556;-93
2022/07/19 06:53:58;;;;;;;13.53;6.20;;;27.20;51.00;;;;;;5043273;28;20185;-93
2022/07/19 06:56:25;;;;;;;15.47;7.03;;;27.30;51.10;;;;;;5040969;28;20274;-92
2022/07/19 06:58:54;;;;;;;10.53;5.70;;;27.30;51.60;;;;;;5047929;28;20275;-91
2022/07/19 07:01:21;;;;;;;12.63;5.67;;;27.40;51.00;;;;;;5036558;28;20214;-93
2022/07/19 07:03:49;;;;;;;13.03;5.70;;;27.40;51.00;;;;;;5029474;28;20212;-92
2022/07/19 07:06:34;;;;;;;10.63;5.43;;;27.50;51.10;;;;;;5030248;28;20662;-92
2022/07/19 07:09:03;;;;;;;11.57;4.97;;;27.60;51.30;;;;;;5011867;28;20393;-93
2022/07/19 07:11:31;;;;;;;11.27;5.30;;;27.60;51.20;;;;;;5029536;28;20227;-92
2022/07/19 07:14:35;;;;;;;16.03;6.90;;;27.70;51.10;;;;;;5033340;28;20230;-94
2022/07/19 07:17:02;;;;;;;12.50;4.73;;;27.80;51.40;;;;;;5012098;28;20208;-92
2022/07/19 07:19:33;;;;;;;12.87;6.27;;;27.90;51.10;;;;;;5030288;28;20231;-93
2022/07/19 07:22:04;;;;;;;10.90;5.00;;;28.00;51.10;;;;;;5046534;28;20291;-94
2022/07/19 07:24:32;;;;;;;10.97;5.03;;;28.10;51.00;;;;;;5041976;28;20295;-93
2022/07/19 07:27:00;;;;;;;9.83;4.60;;;28.20;51.10;;;;;;5029866;28;20820;-90
2022/07/19 07:29:29;;;;;;;10.00;4.60;;;28.20;51.00;;;;;;5026046;28;20254;-91
2022/07/19 07:31:56;;;;;;;11.30;4.77;;;28.40;51.20;;;;;;5027404;28;20208;-91
2022/07/19 07:34:23;;;;;;;15.50;6.80;;;28.40;51.10;;;;;;5028411;28;20207;-91
2022/07/19 07:36:52;;;;;;;8.43;4.00;;;28.50;51.00;;;;;;5029495;28;20215;-91
2022/07/19 07:39:25;;;;;;;9.80;4.63;;;28.60;51.10;;;;;;5032522;28;20211;-92
2022/07/19 07:41:53;;;;;;;8.67;4.20;;;28.70;51.40;;;;;;5029027;28;20209;-91
2022/07/19 07:44:20;;;;;;;11.43;5.30;;;28.80;51.00;;;;;;5028771;28;20185;-92
2022/07/19 07:46:48;;;;;;;9.43;4.30;;;28.90;50.90;;;;;;5028317;28;20236;-91
2022/07/19 07:49:15;;;;;;;10.07;4.07;;;29.00;50.90;;;;;;5028168;28;20252;-91
2022/07/19 07:51:42;;;;;;;8.70;3.63;;;29.10;50.80;;;;;;5027861;28;20653;-91
2022/07/19 07:54:10;;;;;;;7.07;3.73;;;29.20;50.50;;;;;;5027861;28;20556;-91
2022/07/19 07:56:37;;;;;;;11.63;4.87;;;29.30;50.30;;;;;;5027474;28;20728;-90
2022/07/19 07:59:43;;;;;;;8.37;4.30;;;29.40;50.00;;;;;;5027973;28;20189;-93
2022/07/19 08:02:13;;;;;;;8.70;4.13;;;29.50;49.60;;;;;;5029794;28;20196;-93
2022/07/19 08:04:42;;;;;;;12.13;4.90;;;29.70;49.10;;;;;;5036807;23;20249;-91
2022/07/19 08:09:54;;;;;;;10.60;4.80;;;29.90;48.60;;;;;;5027405;28;20236;-92
2022/07/19 08:12:22;;;;;;;13.30;5.00;;;30.10;48.20;;;;;;5021257;28;20305;-93
2022/07/19 08:14:49;;;;;;;12.57;6.00;;;30.20;48.00;;;;;;5010983;28;20205;-94
2022/07/19 08:17:21;;;;;;;16.33;7.07;;;30.30;48.10;;;;;;5014019;28;20712;-91
2022/07/19 08:19:51;;;;;;;17.40;6.03;;;30.40;47.80;;;;;;5017628;28;20212;-91
2022/07/19 08:22:19;;;;;;;10.83;4.40;;;30.60;47.50;;;;;;5022663;28;20201;-92
2022/07/19 08:24:47;;;;;;;11.68;4.57;;;30.70;47.50;;;;;;5017880;28;20212;-95
2022/07/19 08:30:19;;;;;;;10.25;4.13;;;31.00;46.00;;;;;;5027712;28;20224;-93
2022/07/19 08:32:48;;;;;;;12.55;6.43;;;31.20;46.50;;;;;;5020930;28;20206;-92
2022/07/19 08:35:15;;;;;;;8.77;4.63;;;31.20;45.40;;;;;;5023944;28;20968;-91
2022/07/19 08:37:42;;;;;;;10.07;5.35;;;31.40;45.40;;;;;;5016732;28;20276;-93
2022/07/19 08:40:10;;;;;;;12.65;6.30;;;31.50;45.40;;;;;;5027911;28;20239;-94
2022/07/19 08:42:47;;;;;;;11.63;6.15;;;31.70;45.20;;;;;;5016922;28;20212;-94
2022/07/19 08:45:14;;;;;;;9.93;5.00;;;31.80;44.60;;;;;;5012047;28;20220;-92
2022/07/19 08:48:08;;;;;;;7.78;3.88;;;32.00;45.20;;;;;;5028950;28;20352;-93
2022/07/19 08:50:35;;;;;;;9.60;4.10;;;32.20;44.50;;;;;;5032003;28;20228;-90
2022/07/19 08:53:04;;;;;;;6.18;4.05;;;32.40;44.50;;;;;;5019478;28;20268;-94
2022/07/19 08:55:34;;;;;;;15.98;6.15;;;32.50;44.20;;;;;;5014508;28;20728;-90
2022/07/19 08:58:01;;;;;;;17.48;4.38;;;32.80;43.60;;;;;;5019743;28;20197;-91
2022/07/19 09:00:35;;;;;;;7.50;4.30;;;33.00;43.70;;;;;;5025718;28;20201;-90
2022/07/19 09:03:31;;;;;;;8.10;4.28;;;33.30;42.90;;;;;;5027485;28;20269;-91
2022/07/19 09:06:11;;;;;;;11.23;3.97;;;33.50;43.00;;;;;;5028092;28;20218;-91
2022/07/19 09:08:46;;;;;;;11.02;5.47;;;33.80;42.10;;;;;;5030217;28;20204;-92
2022/07/19 09:11:32;;;;;;;7.05;4.50;;;34.10;42.10;;;;;;5031538;28;20231;-92
2022/07/19 09:14:44;;;;;;;8.82;4.80;;;34.20;42.10;;;;;;5030079;28;20255;-93
2022/07/19 09:17:40;;;;;;;8.77;4.55;;;34.60;41.20;;;;;;5043190;28;20256;-91
2022/07/19 09:20:35;;;;;;;7.47;4.57;;;34.80;40.70;;;;;;5043590;28;20697;-92
2022/07/19 09:23:16;;;;;;;6.65;3.78;;;35.10;39.50;;;;;;5018929;28;20193;-89
2022/07/19 09:25:52;;;;;;;11.80;6.50;;;35.30;38.20;;;;;;5029885;28;20220;-89
2022/07/19 09:28:23;;;;;;;7.88;4.45;;;35.50;38.30;;;;;;5026414;28;20200;-94
2022/07/19 09:30:52;;;;;;;7.72;4.43;;;35.70;38.30;;;;;;5027242;28;20648;-88
2022/07/19 09:33:23;;;;;;;8.05;4.32;;;35.90;37.10;;;;;;5033335;28;20936;-93
2022/07/19 09:36:14;;;;;;;7.72;4.38;;;36.10;36.10;;;;;;5025969;28;20207;-91
2022/07/19 09:38:43;;;;;;;7.75;4.75;;;36.20;36.30;;;;;;5022599;28;20211;-91
2022/07/19 09:41:12;;;;;;;7.78;4.30;;;36.30;38.20;;;;;;5031126;28;20205;-92
2022/07/19 09:47:13;;;;;;;11.00;6.65;;;36.70;37.30;;;;;;5046086;23;20263;-91
2022/07/19 09:49:40;;;;;;;8.30;5.03;;;36.90;38.00;;;;;;5015557;28;20221;-91
2022/07/19 09:52:43;;;;;;;15.25;6.15;;;37.10;37.50;;;;;;5015015;28;20666;-95
2022/07/19 09:55:12;;;;;;;11.35;5.18;;;37.30;36.40;;;;;;5004588;28;20213;-93
2022/07/19 09:57:53;;;;;;;12.10;6.70;;;37.50;36.50;;;;;;5012187;28;20216;-92
2022/07/19 10:00:22;;;;;;;9.18;5.18;;;37.70;35.60;;;;;;5014710;28;20293;-92
2022/07/19 10:02:55;;;;;;;5.20;3.67;;;37.80;35.60;;;;;;5000899;28;20213;-91
2022/07/19 10:05:24;;;;;;;11.88;4.18;;;38.00;33.70;;;;;;4998069;28;20210;-92
2022/07/19 10:08:00;;;;;;;7.22;4.30;;;38.10;34.60;;;;;;4994246;28;20229;-90
2022/07/19 10:10:30;;;;;;;7.43;4.68;;;38.30;34.00;;;;;;4998515;28;20636;-94
2022/07/19 10:12:59;;;;;;;8.48;4.45;;;38.50;34.20;;;;;;5008499;28;20220;-92
2022/07/19 10:15:29;;;;;;;10.57;5.03;;;38.60;33.90;;;;;;4998221;28;20805;-91
2022/07/19 10:18:08;;;;;;;9.65;5.05;;;38.70;33.00;;;;;;5015465;28;20201;-92
2022/07/19 10:20:38;;;;;;;6.47;4.15;;;38.80;32.30;;;;;;5020481;28;20271;-93
2022/07/19 10:23:07;;;;;;;6.53;4.03;;;39.00;32.10;;;;;;5022057;28;20212;-93
2022/07/19 10:25:42;;;;;;;9.82;5.65;;;39.00;30.60;;;;;;5013651;28;20336;-92
2022/07/19 10:28:32;;;;;;;15.93;8.23;;;39.20;31.30;;;;;;5028627;22;20226;-94
2022/07/19 10:31:26;;;;;;;9.48;4.35;;;39.20;31.70;;;;;;5009356;28;20584;-93
2022/07/19 10:34:06;;;;;;;11.30;5.53;;;39.30;31.30;;;;;;5007594;28;20216;-92
2022/07/19 10:36:44;;;;;;;6.85;3.33;;;39.40;31.40;;;;;;5003556;28;20198;-94
2022/07/19 10:39:31;;;;;;;7.80;3.88;;;39.40;31.40;;;;;;5004274;28;20661;-93
2022/07/19 10:42:19;;;;;;;5.72;3.53;;;39.50;31.60;;;;;;4993769;28;20233;-93
2022/07/19 10:45:13;;;;;;;13.07;6.30;;;39.60;30.20;;;;;;4995441;28;20261;-94
2022/07/19 10:48:14;;;;;;;6.55;4.10;;;39.80;31.00;;;;;;5005936;28;20260;-92
2022/07/19 10:50:49;;;;;;;11.38;5.72;;;39.80;30.60;;;;;;4900554;29;20240;-93
2022/07/19 10:53:57;;;;;;;6.53;3.72;;;39.90;29.70;;;;;;4894031;29;20205;-94
2022/07/19 10:56:43;;;;;;;6.45;3.95;;;39.90;30.20;;;;;;4958723;28;20206;-92
2022/07/19 10:59:11;;;;;;;6.82;3.70;;;40.00;30.00;;;;;;4990323;28;20213;-91
2022/07/19 11:01:55;;;;;;;4.88;3.33;;;40.10;30.20;;;;;;4981283;28;20277;-93
2022/07/19 11:04:31;;;;;;;6.88;4.47;;;40.20;29.70;;;;;;4971545;28;20214;-94
2022/07/19 11:10:12;;;;;;;11.57;6.78;;;40.40;29.30;;;;;;5047294;23;20388;-95
2022/07/19 11:12:44;;;;;;;5.18;3.42;;;40.40;29.10;;;;;;5039351;28;20208;-95
2022/07/19 11:18:22;;;;;;;;;;;;;;;;;;;;;
2022/07/19 11:20:50;;;;;;;7.97;3.60;;;40.60;28.10;;;;;;5009748;28;20193;-93
2022/07/19 11:23:33;;;;;;;7.53;4.13;;;40.60;28.80;;;;;;5018129;28;20200;-95
2022/07/19 11:26:08;;;;;;;10.40;5.10;;;40.60;28.60;;;;;;5030530;28;20202;-95
2022/07/19 11:28:49;;;;;;;8.73;4.07;;;40.60;28.60;;;;;;5016344;28;20243;-94
2022/07/19 11:31:19;;;;;;;12.73;6.13;;;40.70;28.50;;;;;;5008032;28;20245;-92
2022/07/19 11:33:48;;;;;;;12.32;4.43;;;40.70;28.00;;;;;;5009044;28;20280;-93
2022/07/19 11:36:17;;;;;;;7.97;4.13;;;40.80;27.70;;;;;;5015960;28;20408;-96
2022/07/19 11:39:18;;;;;;;8.05;3.38;;;40.90;27.70;;;;;;5013375;28;20205;-95
2022/07/19 11:47:19;;;;;;;15.45;9.23;;;41.00;27.20;;;;;;5182742;22;21510;-94
2022/07/19 11:49:53;;;;;;;7.80;4.05;;;41.00;27.50;;;;;;5073484;28;20261;-95
2022/07/19 11:52:21;;;;;;;10.13;5.38;;;41.00;27.50;;;;;;5067069;28;20207;-94
2022/07/19 11:55:42;;;;;;;6.47;3.88;;;41.00;27.40;;;;;;5089798;28;20204;-95
2022/07/19 11:58:16;;;;;;;7.13;3.83;;;41.00;27.20;;;;;;5083142;28;20275;-96
2022/07/19 12:04:22;;;;;;;;;;;;;;;;;;;;;
2022/07/19 12:07:46;;;;;;;8.07;3.88;;;41.20;27.60;;;;;;5087494;22;20333;-96
2022/07/19 12:11:09;;;;;;;10.43;4.63;;;41.20;27.60;;;;;;5065608;28;20318;-95
2022/07/19 12:13:44;;;;;;;7.53;4.43;;;41.30;27.20;;;;;;4994579;28;20217;-96
2022/07/19 12:16:15;;;;;;;7.47;4.97;;;41.40;26.90;;;;;;5061789;28;20631;-94
2022/07/19 12:18:50;;;;;;;7.80;4.70;;;41.50;26.90;;;;;;5071464;28;20718;-96
2022/07/19 12:33:51;;;;;;;7.20;4.63;;;41.90;26.80;;;;;;5069330;28;20219;-95
2022/07/19 12:36:36;;;;;;;8.45;3.33;;;42.00;26.20;;;;;;5065149;28;20199;-95
2022/07/19 12:39:29;;;;;;;8.25;5.30;;;42.10;25.80;;;;;;5068278;28;20196;-95
2022/07/19 12:42:22;;;;;;;6.50;3.63;;;42.20;26.00;;;;;;5067706;28;20207;-96
2022/07/19 12:44:52;;;;;;;7.82;3.95;;;42.20;26.20;;;;;;5072037;28;20249;-93
2022/07/19 12:47:24;;;;;;;11.60;3.97;;;42.30;26.20;;;;;;5072480;28;20232;-96
2022/07/19 12:50:48;;;;;;;5.82;3.80;;;42.40;26.10;;;;;;5075417;28;20251;-96
2022/07/19 12:56:51;;;;;;;7.00;3.35;;;42.60;25.20;;;;;;5042478;22;20271;-95
2022/07/19 13:00:01;;;;;;;5.03;3.50;;;42.70;25.50;;;;;;5058531;28;20200;-96
2022/07/19 13:02:30;;;;;;;7.07;4.70;;;42.80;26.00;;;;;;5050827;28;20231;-96
2022/07/19 13:05:00;;;;;;;13.13;4.10;;;42.90;25.60;;;;;;5052493;28;20200;-94
2022/07/19 13:07:31;;;;;;;9.90;6.47;;;43.00;25.60;;;;;;5040250;28;20204;-95
2022/07/19 13:09:59;;;;;;;15.20;4.53;;;43.20;25.30;;;;;;5045693;28;20287;-95
2022/07/19 13:12:28;;;;;;;7.07;4.35;;;43.20;24.90;;;;;;5050908;28;20657;-91
2022/07/19 13:14:55;;;;;;;7.10;4.75;;;43.40;24.50;;;;;;5049900;28;20208;-91
2022/07/19 13:17:27;;;;;;;9.27;4.65;;;43.40;24.60;;;;;;5054194;28;20676;-92
2022/07/19 13:19:55;;;;;;;7.72;4.40;;;43.40;24.10;;;;;;5050682;28;20728;-96
2022/07/19 13:22:22;;;;;;;10.15;5.82;;;43.40;24.00;;;;;;5048986;28;20262;-91
2022/07/19 13:24:49;;;;;;;6.15;4.15;;;43.40;24.10;;;;;;5050746;28;20561;-92
2022/07/19 13:27:19;;;;;;;10.20;6.97;;;43.50;24.00;;;;;;5047531;28;20200;-91
2022/07/19 13:29:48;;;;;;;9.43;5.85;;;43.50;24.30;;;;;;5051115;28;20219;-92
2022/07/19 13:32:15;;;;;;;8.57;5.35;;;43.60;23.90;;;;;;5049644;28;20255;-96
2022/07/19 13:34:42;;;;;;;7.05;5.32;;;43.50;23.90;;;;;;5054678;28;20235;-94
2022/07/19 13:37:23;;;;;;;13.30;5.85;;;43.60;23.90;;;;;;5050792;28;20259;-92
2022/07/19 13:39:50;;;;;;;15.13;8.85;;;43.70;23.50;;;;;;5056962;22;20203;-92
2022/07/19 13:42:18;;;;;;;10.50;5.70;;;43.70;23.40;;;;;;5052818;28;20208;-92
2022/07/19 13:44:46;;;;;;;7.22;5.22;;;43.70;23.40;;;;;;5092087;28;20187;-96
2022/07/19 13:47:14;;;;;;;8.40;5.32;;;43.80;23.20;;;;;;5091290;28;20321;-92
2022/07/19 13:49:43;;;;;;;5.10;3.25;;;43.80;23.00;;;;;;5092887;28;20192;-91
2022/07/19 13:52:18;;;;;;;8.70;5.60;;;43.80;22.90;;;;;;5085385;28;20223;-93
2022/07/19 13:57:33;;;;;;;7.50;4.55;;;43.90;23.10;;;;;;5067855;28;20257;-93
2022/07/19 14:00:03;;;;;;;8.20;4.22;;;44.00;23.10;;;;;;5058986;28;20284;-92
2022/07/19 14:02:36;;;;;;;8.05;4.93;;;44.00;22.90;;;;;;5051950;28;20280;-93
2022/07/19 14:05:05;;;;;;;7.40;5.00;;;44.10;23.10;;;;;;5069581;28;20284;-92
2022/07/19 14:07:32;;;;;;;11.93;5.65;;;44.10;23.30;;;;;;5062974;28;20566;-89
2022/07/19 14:09:59;;;;;;;7.72;5.05;;;44.20;22.70;;;;;;5050506;28;20681;-91